Time;durP1;ratioP1;P1;durP2;ratioP2;P2;SDS_P1;SDS_P2;PMS_P1;PMS_P2;Temp;Humidity;BMP_temperature;BMP_pressure;BME280_temperature;BME280_humidity;BME280_pressure;Samples;Min_cycle;Max_cycle;Signal;HPM_P1;HPM_P2
2022/03/23 00:00:39;;;;;;;;;;;;;;;7.43;55.18;102991.25;5104094;28;19930;-71
2022/03/23 00:03:05;;;;;;;;;;;;;;;7.35;55.98;102994.91;5102508;28;19923;-72
2022/03/23 00:05:32;;;;;;;;;;;;;;;7.24;56.40;102988.09;5100591;28;20023;-71
2022/03/23 00:07:58;;;;;;;;;;;;;;;7.14;54.94;102988.16;5107315;28;19915;-72
2022/03/23 00:10:23;;;;;;;;;;;;;;;7.05;55.37;102990.94;5104605;28;19965;-71
2022/03/23 00:12:48;;;;;;;;;;;;;;;7.02;56.26;102990.69;5108481;28;19920;-71
2022/03/23 00:15:14;;;;;;;;;;;;;;;6.97;56.51;102985.22;5106782;28;19926;-72
2022/03/23 00:17:40;;;;;;;;;;;;;;;6.94;57.09;102994.34;5106752;28;20040;-71
2022/03/23 00:20:05;;;;;;;;;;;;;;;6.89;57.71;102988.84;5104829;28;19928;-72
2022/03/23 00:22:31;;;;;;;;;;;;;;;6.82;58.04;102991.72;5103872;28;19924;-72
2022/03/23 00:24:56;;;;;;;;;;;;;;;6.76;57.21;102988.69;5104490;27;19916;-71
2022/03/23 00:27:22;;;;;;;;;;;;;;;6.71;57.01;102992.56;5102770;28;19974;-72
2022/03/23 00:29:48;;;;;;;;;;;;;;;6.68;56.98;102993.22;5102371;28;19927;-72
2022/03/23 00:32:14;;;;;;;;;;;;;;;6.65;57.18;102994.63;5104147;28;20289;-73
2022/03/23 00:34:40;;;;;;;;;;;;;;;6.59;57.84;102992.50;5101386;28;19996;-71
2022/03/23 00:37:05;;;;;;;;;;;;;;;6.53;58.42;102996.22;5104581;28;19919;-72
2022/03/23 00:39:30;;;;;;;;;;;;;;;6.48;58.18;102989.88;5101132;28;19928;-72
2022/03/23 00:41:56;;;;;;;;;;;;;;;6.45;57.88;102988.88;5103215;28;19927;-72
2022/03/23 00:44:21;;;;;;;;;;;;;;;6.44;58.23;102993.88;5103710;28;20548;-72
2022/03/23 00:46:47;;;;;;;;;;;;;;;6.39;57.96;102996.06;5105104;28;20412;-72
2022/03/23 00:49:12;;;;;;;;;;;;;;;6.34;59.32;102989.69;5103394;28;19978;-72
2022/03/23 00:51:38;;;;;;;;;;;;;;;6.30;58.69;102992.75;5106213;28;20529;-72
2022/03/23 00:54:03;;;;;;;;;;;;;;;6.22;58.87;102995.47;5104721;28;19920;-72
2022/03/23 00:56:29;;;;;;;;;;;;;;;6.13;60.08;103004.22;5110768;28;19968;-73
2022/03/23 00:58:54;;;;;;;;;;;;;;;6.04;58.77;103003.44;5110465;28;19931;-73
2022/03/23 01:01:19;;;;;;;;;;;;;;;5.98;59.64;103004.63;5108148;28;19919;-74
2022/03/23 01:03:44;;;;;;;;;;;;;;;5.88;60.56;103001.31;5106994;28;19999;-72
2022/03/23 01:06:10;;;;;;;;;;;;;;;5.81;61.67;102993.91;5108588;28;19931;-72
2022/03/23 01:08:35;;;;;;;;;;;;;;;5.76;60.16;103000.28;5109335;28;19935;-71
2022/03/23 01:11:01;;;;;;;;;;;;;;;5.71;60.69;102999.03;5107285;28;19930;-72
2022/03/23 01:13:27;;;;;;;;;;;;;;;5.69;60.47;102998.00;5108943;28;19922;-72
2022/03/23 01:15:52;;;;;;;;;;;;;;;5.65;59.97;103001.09;5108420;28;19927;-71
2022/03/23 01:18:17;;;;;;;;;;;;;;;5.65;60.66;102991.78;5105558;28;19927;-72
2022/03/23 01:20:43;;;;;;;;;;;;;;;5.63;61.45;102992.41;5107347;28;20293;-72
2022/03/23 01:23:09;;;;;;;;;;;;;;;5.61;62.49;102988.84;5104711;28;19924;-72
2022/03/23 01:25:34;;;;;;;;;;;;;;;5.57;61.56;102986.78;5105863;28;19924;-72
2022/03/23 01:28:00;;;;;;;;;;;;;;;5.52;61.10;102980.41;5106545;28;19954;-71
2022/03/23 01:30:25;;;;;;;;;;;;;;;5.45;60.78;102981.56;5107214;28;20394;-71
2022/03/23 01:32:51;;;;;;;;;;;;;;;5.41;61.49;102982.09;5106784;28;19928;-72
2022/03/23 01:35:16;;;;;;;;;;;;;;;5.37;61.91;102980.94;5107690;28;19977;-72
2022/03/23 01:37:43;;;;;;;;;;;;;;;5.34;61.10;102970.50;5106493;28;20263;-73
2022/03/23 01:40:09;;;;;;;;;;;;;;;5.28;60.83;102969.09;5108005;28;19919;-72
2022/03/23 01:42:34;;;;;;;;;;;;;;;5.22;62.08;102969.50;5107739;28;20371;-71
2022/03/23 01:44:59;;;;;;;;;;;;;;;5.20;62.59;102968.44;5108238;28;20018;-73
2022/03/23 01:47:25;;;;;;;;;;;;;;;5.16;61.59;102973.16;5105533;28;20373;-73
2022/03/23 01:49:52;;;;;;;;;;;;;;;5.09;62.35;102962.44;5108892;28;19950;-71
2022/03/23 01:52:19;;;;;;;;;;;;;;;5.01;62.11;102963.47;5109244;28;19916;-71
2022/03/23 01:54:44;;;;;;;;;;;;;;;4.98;62.24;102967.44;5106383;28;20385;-71
2022/03/23 01:57:11;;;;;;;;;;;;;;;4.93;62.28;102966.16;5107687;27;19919;-72
2022/03/23 01:59:36;;;;;;;;;;;;;;;4.88;62.56;102962.31;5105396;28;19957;-71
2022/03/23 02:02:03;;;;;;;;;;;;;;;4.85;63.16;102962.94;5108981;28;19919;-72
2022/03/23 02:04:28;;;;;;;;;;;;;;;4.83;63.79;102970.47;5106270;28;19941;-71
2022/03/23 02:06:53;;;;;;;;;;;;;;;4.80;64.57;102964.22;5107553;28;19923;-71
2022/03/23 02:09:19;;;;;;;;;;;;;;;4.74;63.58;102967.16;5103878;28;20271;-71
2022/03/23 02:11:45;;;;;;;;;;;;;;;4.70;65.45;102962.53;5107803;28;19969;-72
2022/03/23 02:14:10;;;;;;;;;;;;;;;4.66;65.12;102964.69;5104260;28;20386;-72
2022/03/23 02:16:40;;;;;;;;;;;;;;;4.61;64.72;102966.88;5105986;28;19927;-72
2022/03/23 02:19:05;;;;;;;;;;;;;;;4.56;65.33;102963.03;5108614;28;19916;-73
2022/03/23 02:21:31;;;;;;;;;;;;;;;4.51;64.41;102969.38;5103936;28;19927;-71
2022/03/23 02:23:57;;;;;;;;;;;;;;;4.48;65.23;102964.00;5105920;27;19920;-71
2022/03/23 02:26:23;;;;;;;;;;;;;;;4.45;65.63;102966.31;5104841;28;19923;-72
2022/03/23 02:28:50;;;;;;;;;;;;;;;4.41;67.25;102959.16;5107038;27;19919;-72
2022/03/23 02:31:15;;;;;;;;;;;;;;;4.37;65.81;102963.09;5105872;27;19934;-72
2022/03/23 02:33:40;;;;;;;;;;;;;;;4.33;67.45;102957.59;5103918;27;19928;-72
2022/03/23 02:36:06;;;;;;;;;;;;;;;4.30;67.57;102961.66;5106811;28;20415;-71
2022/03/23 02:38:31;;;;;;;;;;;;;;;4.29;68.08;102966.63;5104925;28;20282;-72
2022/03/23 02:40:56;;;;;;;;;;;;;;;4.26;67.04;102954.53;5104481;28;20687;-71
2022/03/23 02:43:22;;;;;;;;;;;;;;;4.21;68.03;102960.88;5105079;28;19920;-72
2022/03/23 02:45:47;;;;;;;;;;;;;;;4.18;68.55;102963.13;5102610;28;20401;-72
2022/03/23 02:48:13;;;;;;;;;;;;;;;4.16;67.82;102963.78;5099335;28;19978;-72
2022/03/23 02:50:39;;;;;;;;;;;;;;;4.12;66.89;102966.81;5105133;28;19928;-72
2022/03/23 03:04:10;;;;;;;;;;;;;;;3.93;68.81;102959.22;5107888;28;20311;-73
2022/03/23 03:06:35;;;;;;;;;;;;;;;3.90;69.46;102958.94;5102488;28;19935;-72
2022/03/23 03:09:00;;;;;;;;;;;;;;;3.87;68.23;102958.66;5106826;28;19919;-72
2022/03/23 03:11:25;;;;;;;;;;;;;;;3.80;69.97;102962.31;5109900;28;19919;-72
2022/03/23 03:13:51;;;;;;;;;;;;;;;3.78;69.72;102968.94;5106204;28;19924;-72
2022/03/23 03:16:17;;;;;;;;;;;;;;;3.70;70.78;102964.78;5108408;28;19920;-71
2022/03/23 03:18:43;;;;;;;;;;;;;;;3.65;70.31;102971.16;5104677;28;19923;-73
2022/03/23 03:21:09;;;;;;;;;;;;;;;3.60;70.73;102975.81;5107003;28;19939;-73
2022/03/23 03:23:35;;;;;;;;;;;;;;;3.54;70.03;102982.00;5102684;28;19932;-73
2022/03/23 03:26:05;;;;;;;;;;;;;;;3.48;71.05;102983.25;5105799;28;19920;-71
2022/03/23 03:28:32;;;;;;;;;;;;;;;3.46;71.07;102976.25;5106450;28;19950;-72
2022/03/23 03:30:57;;;;;;;;;;;;;;;3.41;70.92;102980.00;5101578;28;20310;-73
2022/03/23 03:33:22;;;;;;;;;;;;;;;3.38;71.10;102985.69;5106632;28;19920;-72
2022/03/23 03:35:47;;;;;;;;;;;;;;;3.36;70.99;102983.78;5106190;28;19915;-72
2022/03/23 03:38:13;;;;;;;;;;;;;;;3.33;71.55;102984.38;5106228;28;20332;-72
2022/03/23 03:40:38;;;;;;;;;;;;;;;3.32;72.31;102976.63;5106038;28;19927;-72
2022/03/23 03:43:03;;;;;;;;;;;;;;;3.30;72.57;102976.50;5105741;28;19920;-72
2022/03/23 03:45:29;;;;;;;;;;;;;;;3.27;71.24;102983.81;5105915;28;20512;-72
2022/03/23 03:47:54;;;;;;;;;;;;;;;3.24;71.59;102983.56;5102506;28;19924;-73
2022/03/23 03:50:19;;;;;;;;;;;;;;;3.20;72.51;102978.94;5103860;28;19942;-73
2022/03/23 03:52:45;;;;;;;;;;;;;;;3.20;72.14;102989.09;5105344;28;19923;-73
2022/03/23 03:55:10;;;;;;;;;;;;;;;3.20;74.75;102979.81;5105563;28;19927;-73
2022/03/23 03:57:35;;;;;;;;;;;;;;;3.25;73.91;102987.88;5102641;28;19924;-72
2022/03/23 04:00:00;;;;;;;;;;;;;;;3.24;74.28;102988.66;5104728;28;20428;-72
2022/03/23 04:02:26;;;;;;;;;;;;;;;3.25;72.81;102982.78;5105447;28;20290;-72
2022/03/23 04:04:51;;;;;;;;;;;;;;;3.25;73.90;102985.34;5087568;28;20424;-72
2022/03/23 04:07:16;;;;;;;;;;;;;;;3.26;73.00;102982.03;5105494;28;19955;-73
2022/03/23 04:09:41;;;;;;;;;;;;;;;3.25;73.73;102987.00;5104508;28;19949;-72
2022/03/23 04:12:07;;;;;;;;;;;;;;;3.25;74.40;102987.88;5104675;28;19919;-72
2022/03/23 04:14:32;;;;;;;;;;;;;;;3.25;72.85;102985.34;5103375;28;19926;-73
2022/03/23 04:16:57;;;;;;;;;;;;;;;3.23;73.01;102984.31;5104881;28;19928;-74
2022/03/23 04:19:23;;;;;;;;;;;;;;;3.18;72.07;102983.00;5102417;28;19955;-72
2022/03/23 04:21:48;;;;;;;;;;;;;;;3.14;73.80;102984.34;5105646;28;20039;-72
2022/03/23 04:24:13;;;;;;;;;;;;;;;3.16;76.06;102977.78;5106674;28;20014;-72
2022/03/23 04:26:38;;;;;;;;;;;;;;;3.35;75.39;102982.00;5105338;28;20516;-72
2022/03/23 04:29:04;;;;;;;;;;;;;;;3.53;73.73;102983.66;5108734;28;19920;-72
2022/03/23 04:31:29;;;;;;;;;;;;;;;3.59;73.44;102980.78;5103662;28;19977;-74
2022/03/23 04:33:54;;;;;;;;;;;;;;;3.61;72.78;102982.69;5106263;28;19919;-72
2022/03/23 04:36:20;;;;;;;;;;;;;;;3.64;72.45;102979.50;5106913;28;19951;-71
2022/03/23 04:38:45;;;;;;;;;;;;;;;3.70;72.53;102982.59;5108174;27;19961;-72
2022/03/23 04:41:10;;;;;;;;;;;;;;;3.72;73.47;102988.75;5107612;28;20512;-72
2022/03/23 04:43:38;;;;;;;;;;;;;;;3.74;72.05;102982.13;5108496;28;19930;-71
2022/03/23 04:46:03;;;;;;;;;;;;;;;3.78;72.43;102990.94;5110212;28;19952;-72
2022/03/23 04:48:28;;;;;;;;;;;;;;;3.81;72.10;102988.66;5107756;28;19928;-72
2022/03/23 04:50:54;;;;;;;;;;;;;;;3.83;71.65;102990.59;5108956;28;19930;-72
2022/03/23 04:53:20;;;;;;;;;;;;;;;3.80;72.34;102986.88;5105740;28;19929;-73
2022/03/23 04:55:45;;;;;;;;;;;;;;;3.79;72.89;102985.09;5105310;28;19919;-72
2022/03/23 04:58:10;;;;;;;;;;;;;;;3.99;73.22;102990.28;5109702;28;20278;-71
2022/03/23 05:00:36;;;;;;;;;;;;;;;4.10;71.72;102988.69;5105430;28;20275;-72
2022/03/23 05:03:01;;;;;;;;;;;;;;;4.19;71.10;103000.59;5108832;28;19972;-72
2022/03/23 05:05:27;;;;;;;;;;;;;;;4.17;71.57;102991.91;5106500;28;19923;-72
2022/03/23 05:07:52;;;;;;;;;;;;;;;4.13;70.56;102999.16;5109081;28;19998;-73
2022/03/23 05:10:18;;;;;;;;;;;;;;;4.06;70.46;102987.53;5107448;28;19927;-72
2022/03/23 05:12:43;;;;;;;;;;;;;;;4.01;70.60;102993.88;5107509;28;19937;-72
2022/03/23 05:15:09;;;;;;;;;;;;;;;3.95;70.23;103000.97;5105712;27;19916;-72
2022/03/23 05:17:38;;;;;;;;;;;;;;;3.79;69.47;103008.88;5105288;27;19915;-71
2022/03/23 05:20:04;;;;;;;;;;;;;;;3.62;69.74;103007.38;5105488;28;19915;-72
2022/03/23 05:22:30;;;;;;;;;;;;;;;3.47;70.02;103006.00;5108700;28;19923;-73
2022/03/23 05:24:55;;;;;;;;;;;;;;;3.34;69.96;103008.19;5108664;28;19930;-74
2022/03/23 05:27:20;;;;;;;;;;;;;;;3.22;70.30;103008.84;5106589;28;19930;-73
2022/03/23 05:29:46;;;;;;;;;;;;;;;3.11;70.23;102999.34;5090103;28;19920;-73
2022/03/23 05:32:16;;;;;;;;;;;;;;;3.04;69.70;103008.81;5108326;28;20362;-73
2022/03/23 05:34:42;;;;;;;;;;;;;;;2.95;69.90;103012.25;5109767;27;19926;-73
2022/03/23 05:37:07;;;;;;;;;;;;;;;2.87;70.64;103012.31;5104220;28;19920;-73
2022/03/23 05:39:32;;;;;;;;;;;;;;;2.80;71.57;103013.41;5108660;28;19939;-73
2022/03/23 05:41:58;;;;;;;;;;;;;;;2.75;68.25;103026.41;5104216;28;19927;-74
2022/03/23 05:44:23;;;;;;;;;;;;;;;2.72;67.67;103021.03;5102061;28;19923;-73
2022/03/23 05:46:48;;;;;;;;;;;;;;;2.70;70.89;103020.91;5102531;28;19928;-73
2022/03/23 05:49:16;;;;;;;;;;;;;;;2.68;72.15;103025.84;5104559;28;20576;-73
2022/03/23 05:51:41;;;;;;;;;;;;;;;2.67;71.52;103030.78;5101193;28;20351;-74
2022/03/23 05:54:06;;;;;;;;;;;;;;;2.67;73.64;103044.38;5106680;28;19919;-73
2022/03/23 05:56:31;;;;;;;;;;;;;;;2.79;74.40;103029.41;5106271;28;19920;-72
2022/03/23 05:58:57;;;;;;;;;;;;;;;3.09;74.01;103032.97;5108162;28;20298;-73
2022/03/23 06:01:22;;;;;;;;;;;;;;;3.49;73.85;103037.53;5102315;28;19920;-73
2022/03/23 06:03:49;;;;;;;;;;;;;;;3.90;72.56;103050.56;5101087;28;20271;-72
2022/03/23 06:06:15;;;;;;;;;;;;;;;4.33;71.46;103041.66;5102979;28;19928;-71
2022/03/23 06:08:40;;;;;;;;;;;;;;;4.73;70.91;103035.81;5101949;28;19927;-71
2022/03/23 06:11:06;;;;;;;;;;;;;;;4.95;69.21;103036.00;5108460;28;19920;-72
2022/03/23 06:13:32;;;;;;;;;;;;;;;5.05;68.14;103041.13;5101050;28;19923;-73
2022/03/23 06:15:57;;;;;;;;;;;;;;;5.33;67.86;103029.91;5102479;28;19935;-72
2022/03/23 06:18:25;;;;;;;;;;;;;;;5.74;67.90;103040.13;5101932;27;19916;-72
2022/03/23 06:20:51;;;;;;;;;;;;;;;5.96;67.04;103047.91;5096628;28;19961;-72
2022/03/23 06:23:16;;;;;;;;;;;;;;;6.01;66.12;103043.19;5095660;28;20584;-73
2022/03/23 06:25:42;;;;;;;;;;;;;;;6.23;65.61;103041.59;5097575;27;20022;-72
2022/03/23 06:28:07;;;;;;;;;;;;;;;6.67;65.06;103041.66;5099221;28;19919;-72
2022/03/23 06:30:34;;;;;;;;;;;;;;;7.13;64.54;103040.13;5096264;28;19938;-72
2022/03/23 06:32:59;;;;;;;;;;;;;;;7.75;63.06;103039.72;5101811;28;19920;-73
2022/03/23 06:35:26;;;;;;;;;;;;;;;8.50;61.70;103034.97;5101714;28;20012;-73
2022/03/23 06:37:51;;;;;;;;;;;;;;;9.22;60.11;103041.63;5100142;28;20007;-72
2022/03/23 06:40:16;;;;;;;;;;;;;;;9.92;57.81;103036.06;5098453;27;20390;-74
2022/03/23 06:42:41;;;;;;;;;;;;;;;10.58;54.91;103036.06;5100027;28;19948;-73
2022/03/23 06:45:07;;;;;;;;;;;;;;;11.37;52.26;103047.75;5100827;28;20418;-73
2022/03/23 06:47:32;;;;;;;;;;;;;;;12.03;50.48;103044.78;5101995;28;19927;-73
2022/03/23 06:49:57;;;;;;;;;;;;;;;12.35;50.06;103048.28;5097873;27;19967;-74
2022/03/23 06:52:23;;;;;;;;;;;;;;;12.69;45.74;103044.97;5097919;28;19920;-73
2022/03/23 06:54:49;;;;;;;;;;;;;;;12.94;47.63;103042.91;5096624;28;19928;-73
2022/03/23 06:57:14;;;;;;;;;;;;;;;13.33;45.99;103053.56;5096188;28;19998;-74
2022/03/23 06:59:39;;;;;;;;;;;;;;;13.79;46.92;103054.19;5096683;28;20035;-74
2022/03/23 07:02:05;;;;;;;;;;;;;;;14.34;46.57;103046.53;5100860;28;20314;-73
2022/03/23 07:04:31;;;;;;;;;;;;;;;14.91;42.33;103051.75;5099797;28;19943;-74
2022/03/23 07:06:56;;;;;;;;;;;;;;;15.49;39.97;103043.94;5103115;28;20339;-73
2022/03/23 07:09:39;;;;;;;;;;;;;;;15.85;38.46;103047.22;5094424;28;20022;-73
2022/03/23 07:12:09;;;;;;;;;;;;;;;16.45;39.66;103050.50;5098775;28;19949;-73
2022/03/23 07:14:35;;;;;;;;;;;;;;;17.14;36.93;103051.38;5098589;28;19926;-74
2022/03/23 07:17:01;;;;;;;;;;;;;;;17.57;38.96;103047.66;5096693;28;19934;-74
2022/03/23 07:19:27;;;;;;;;;;;;;;;17.88;38.54;103056.53;5095243;28;19927;-74
2022/03/23 07:21:53;;;;;;;;;;;;;;;18.64;38.99;103058.03;5097019;27;19928;-73
2022/03/23 07:24:18;;;;;;;;;;;;;;;19.43;36.88;103056.81;5100635;28;19928;-74
2022/03/23 07:26:44;;;;;;;;;;;;;;;20.05;37.68;103055.78;5097939;28;19947;-73
2022/03/23 07:29:09;;;;;;;;;;;;;;;20.74;34.42;103062.56;5096390;28;19920;-73
2022/03/23 07:31:35;;;;;;;;;;;;;;;21.18;36.29;103059.13;5100145;28;20002;-72
2022/03/23 07:34:02;;;;;;;;;;;;;;;21.75;35.06;103051.44;5099281;28;20396;-72
2022/03/23 07:36:27;;;;;;;;;;;;;;;22.26;32.41;103058.34;5096500;28;20410;-73
2022/03/23 07:38:52;;;;;;;;;;;;;;;22.48;30.62;103057.78;5097086;28;19947;-73
2022/03/23 07:41:18;;;;;;;;;;;;;;;22.62;28.73;103055.34;5099066;28;19982;-72
2022/03/23 07:43:43;;;;;;;;;;;;;;;22.57;29.85;103056.13;5098276;28;19922;-72
2022/03/23 07:46:08;;;;;;;;;;;;;;;22.81;26.91;103061.69;5098020;28;20370;-73
2022/03/23 07:48:34;;;;;;;;;;;;;;;23.08;25.66;103057.69;5095364;28;20030;-73
2022/03/23 07:50:59;;;;;;;;;;;;;;;22.85;31.18;103065.25;5095553;28;20021;-70
2022/03/23 07:53:24;;;;;;;;;;;;;;;23.24;27.03;103064.88;5098905;28;19915;-71
2022/03/23 07:55:49;;;;;;;;;;;;;;;23.60;25.23;103066.97;5094027;28;20070;-72
2022/03/23 07:58:15;;;;;;;;;;;;;;;23.36;30.31;103070.25;5094170;28;20266;-73
2022/03/23 08:00:42;;;;;;;;;;;;;;;23.69;30.80;103069.69;5093932;28;19919;-73
2022/03/23 08:03:07;;;;;;;;;;;;;;;23.96;29.02;103062.88;5096192;28;19923;-73
2022/03/23 08:05:33;;;;;;;;;;;;;;;24.36;24.25;103071.94;5092653;28;19932;-73
2022/03/23 08:07:58;;;;;;;;;;;;;;;24.70;25.10;103070.38;5095514;28;19924;-72
2022/03/23 08:10:23;;;;;;;;;;;;;;;24.86;27.39;103072.16;5092807;28;20036;-71
2022/03/23 08:12:50;;;;;;;;;;;;;;;25.06;25.18;103074.91;5102459;28;21118;-73
2022/03/23 08:15:16;;;;;;;;;;;;;;;25.17;26.52;103076.69;5091637;28;20060;-71
2022/03/23 08:17:42;;;;;;;;;;;;;;;25.52;23.41;103074.97;5091869;28;20006;-73
2022/03/23 08:22:56;;;;;;;;;;;;;;;25.78;21.28;103068.88;5092053;28;19939;-72
2022/03/23 08:25:21;;;;;;;;;;;;;;;25.87;22.00;103066.25;5096999;28;19916;-72
2022/03/23 08:27:47;;;;;;;;;;;;;;;26.20;24.91;103081.13;5095538;28;19958;-73
2022/03/23 08:30:13;;;;;;;;;;;;;;;26.69;26.17;103066.03;5096761;28;19931;-73
2022/03/23 08:32:38;;;;;;;;;;;;;;;27.49;20.36;103065.63;5093143;28;20489;-71
2022/03/23 08:35:04;;;;;;;;;;;;;;;27.38;24.78;103070.09;5097977;28;19935;-73
2022/03/23 08:37:29;;;;;;;;;;;;;;;27.73;22.50;103061.91;5095934;28;19958;-72
2022/03/23 08:39:55;;;;;;;;;;;;;;;27.68;19.55;103061.91;5098508;28;19927;-73
2022/03/23 08:42:20;;;;;;;;;;;;;;;27.97;23.25;103063.44;5093885;28;19981;-72
2022/03/23 08:44:46;;;;;;;;;;;;;;;28.40;18.92;103066.53;5095480;28;19932;-73
2022/03/23 08:47:12;;;;;;;;;;;;;;;28.31;19.20;103063.97;5095231;28;19936;-72
2022/03/23 08:49:37;;;;;;;;;;;;;;;28.49;23.33;103066.41;5094129;28;19931;-73
2022/03/23 08:52:03;;;;;;;;;;;;;;;29.41;17.34;103067.81;5092858;28;20930;-73
2022/03/23 08:54:28;;;;;;;;;;;;;;;29.47;18.60;103066.81;5090963;28;19916;-73
2022/03/23 08:56:53;;;;;;;;;;;;;;;30.11;21.13;103061.34;5097163;28;20569;-73
2022/03/23 08:59:19;;;;;;;;;;;;;;;30.57;16.09;103067.47;5080024;28;20028;-74
2022/03/23 09:01:44;;;;;;;;;;;;;;;30.77;20.70;103062.66;5101552;28;19923;-74
2022/03/23 09:04:10;;;;;;;;;;;;;;;31.39;20.26;103063.00;5109760;28;19919;-71
2022/03/23 09:06:35;;;;;;;;;;;;;;;31.83;17.54;103062.81;5101668;28;19929;-73
2022/03/23 09:09:01;;;;;;;;;;;;;;;31.70;19.27;103057.78;5101464;28;19952;-73
2022/03/23 09:11:26;;;;;;;;;;;;;;;31.95;19.79;103068.66;5101318;28;19920;-73
2022/03/23 09:13:51;;;;;;;;;;;;;;;32.36;17.40;103061.34;5099701;28;19935;-73
2022/03/23 09:16:16;;;;;;;;;;;;;;;32.70;16.99;103065.66;5100466;28;19927;-74
2022/03/23 09:18:42;;;;;;;;;;;;;;;33.13;17.30;103062.56;5106426;28;19958;-73
2022/03/23 09:21:07;;;;;;;;;;;;;;;33.74;13.69;103062.34;5102087;28;19916;-73
2022/03/23 09:23:32;;;;;;;;;;;;;;;33.72;13.23;103059.69;5099515;28;19951;-73
2022/03/23 09:25:58;;;;;;;;;;;;;;;33.60;16.95;103058.34;5100892;28;20366;-72
2022/03/23 09:28:23;;;;;;;;;;;;;;;33.71;15.82;103059.75;5102195;28;20376;-73
2022/03/23 09:30:48;;;;;;;;;;;;;;;34.04;14.10;103063.94;5098023;28;20335;-73
2022/03/23 09:33:14;;;;;;;;;;;;;;;34.22;14.68;103058.84;5098701;28;19924;-74
2022/03/23 09:35:39;;;;;;;;;;;;;;;34.18;13.66;103059.91;5098837;28;20033;-74
2022/03/23 09:38:04;;;;;;;;;;;;;;;33.84;14.26;103053.06;5102072;28;19989;-75
2022/03/23 09:40:32;;;;;;;;;;;;;;;33.53;15.03;103062.13;5098071;28;19931;-74
2022/03/23 09:43:01;;;;;;;;;;;;;;;33.64;14.82;103053.78;5098669;28;19915;-71
2022/03/23 09:48:11;;;;;;;;;;;;;;;34.04;14.71;103060.41;5099250;28;20015;-74
2022/03/23 09:50:38;;;;;;;;;;;;;;;34.51;14.53;103058.63;5099247;28;19955;-71
2022/03/23 09:53:03;;;;;;;;;;;;;;;34.83;13.32;103059.22;5105699;27;19915;-71
2022/03/23 09:55:29;;;;;;;;;;;;;;;35.31;13.40;103061.72;5104293;28;19926;-71
2022/03/23 09:57:55;;;;;;;;;;;;;;;35.44;13.74;103056.75;5102296;28;19923;-71
2022/03/23 10:00:20;;;;;;;;;;;;;;;35.26;13.61;103062.84;5100884;28;19924;-72
2022/03/23 10:02:58;;;;;;;;;;;;;;;35.40;14.13;103061.31;5098240;28;19932;-72
2022/03/23 10:05:26;;;;;;;;;;;;;;;35.77;13.57;103065.09;5095665;28;19924;-72
2022/03/23 10:08:13;;;;;;;;;;;;;;;36.10;13.20;103061.88;5097478;28;20298;-71
2022/03/23 10:10:59;;;;;;;;;;;;;;;36.29;14.10;103062.81;5102029;27;19926;-71
2022/03/23 10:13:43;;;;;;;;;;;;;;;36.86;11.58;103070.84;5059452;28;19924;-71
2022/03/23 10:16:27;;;;;;;;;;;;;;;35.87;12.43;103066.44;5101480;28;20308;-73
2022/03/23 10:18:58;;;;;;;;;;;;;;;35.12;13.96;103064.25;5102568;28;19924;-71
2022/03/23 10:21:25;;;;;;;;;;;;;;;35.31;13.15;103058.13;5095724;28;19915;-72
2022/03/23 10:24:00;;;;;;;;;;;;;;;35.19;13.80;103054.16;5101339;28;19920;-71
2022/03/23 10:26:26;;;;;;;;;;;;;;;34.74;13.18;103056.88;5093535;27;20054;-73
2022/03/23 10:28:52;;;;;;;;;;;;;;;33.83;12.31;103052.19;5095041;28;20014;-73
2022/03/23 10:31:18;;;;;;;;;;;;;;;33.61;13.37;103049.44;5096157;28;20011;-74
2022/03/23 10:33:44;;;;;;;;;;;;;;;33.30;12.55;103051.34;5093008;28;19923;-74
2022/03/23 10:36:09;;;;;;;;;;;;;;;33.40;13.37;103054.63;5088904;27;19934;-75
2022/03/23 10:38:39;;;;;;;;;;;;;;;33.98;13.82;103049.97;5097758;27;19928;-72
2022/03/23 10:41:09;;;;;;;;;;;;;;;34.19;12.32;103053.63;5096108;27;20398;-73
2022/03/23 10:43:36;;;;;;;;;;;;;;;33.60;14.34;103047.66;5093507;28;19920;-72
2022/03/23 10:46:11;;;;;;;;;;;;;;;34.40;14.03;103055.47;5099726;27;19920;-73
2022/03/23 10:48:48;;;;;;;;;;;;;;;35.19;12.26;103043.47;5096037;27;20290;-74
2022/03/23 10:51:14;;;;;;;;;;;;;;;34.70;12.39;103044.56;5096264;28;19963;-75
2022/03/23 10:53:40;;;;;;;;;;;;;;;35.46;12.79;103044.16;5092725;27;20401;-72
2022/03/23 10:56:06;;;;;;;;;;;;;;;35.47;12.15;103041.41;5097796;28;19920;-73
2022/03/23 10:58:32;;;;;;;;;;;;;;;35.07;13.54;103035.97;5097705;28;19939;-73
2022/03/23 11:01:02;;;;;;;;;;;;;;;35.88;10.76;103032.50;5096543;28;19923;-71
2022/03/23 11:03:38;;;;;;;;;;;;;;;35.69;11.23;103041.34;5091916;28;20011;-73
2022/03/23 11:06:05;;;;;;;;;;;;;;;35.15;11.55;103024.03;5097138;27;19977;-73
2022/03/23 11:08:31;;;;;;;;;;;;;;;35.43;11.15;103030.91;5095815;28;20010;-74
2022/03/23 11:16:40;;;;;;;;;;;;;;;36.77;9.97;103042.69;5097192;28;19927;-73
2022/03/23 11:19:11;;;;;;;;;;;;;;;36.12;11.08;103028.75;5092736;28;19916;-73
2022/03/23 11:22:01;;;;;;;;;;;;;;;36.44;11.82;103029.94;5092370;28;19916;-76
2022/03/23 11:24:30;;;;;;;;;;;;;;;36.93;12.06;103041.00;5089024;28;20314;-77
2022/03/23 11:26:55;;;;;;;;;;;;;;;37.72;10.49;103021.81;5094766;28;19932;-77
2022/03/23 11:29:21;;;;;;;;;;;;;;;37.33;10.98;103027.41;5093456;28;20679;-77
2022/03/23 11:31:47;;;;;;;;;;;;;;;37.74;9.36;103023.47;5090862;28;20407;-77
2022/03/23 11:34:13;;;;;;;;;;;;;;;37.70;9.53;103027.25;5083895;28;19919;-77
2022/03/23 11:36:39;;;;;;;;;;;;;;;37.23;9.45;103027.88;5085257;28;19922;-77
2022/03/23 11:39:05;;;;;;;;;;;;;;;36.81;10.73;103030.00;5093439;28;20034;-76
2022/03/23 11:41:32;;;;;;;;;;;;;;;36.84;9.98;103024.50;5088938;28;20446;-76
2022/03/23 11:43:57;;;;;;;;;;;;;;;36.52;10.90;103018.84;5093175;28;19916;-76
2022/03/23 11:46:23;;;;;;;;;;;;;;;36.89;9.45;103018.00;5091113;28;20330;-75
2022/03/23 11:48:59;;;;;;;;;;;;;;;36.89;10.65;103019.78;5094848;28;19951;-78
2022/03/23 11:51:43;;;;;;;;;;;;;;;36.87;10.26;103017.19;5094038;28;19915;-79
2022/03/23 11:54:27;;;;;;;;;;;;;;;36.59;8.50;103014.97;5093461;28;19916;-76
2022/03/23 11:56:55;;;;;;;;;;;;;;;35.82;9.28;103014.06;5090584;28;19924;-77
2022/03/23 11:59:28;;;;;;;;;;;;;;;35.20;10.17;103000.66;5102814;28;19924;-78
2022/03/23 12:01:54;;;;;;;;;;;;;;;35.25;10.21;102999.56;5097057;28;19952;-76
2022/03/23 12:04:19;;;;;;;;;;;;;;;35.95;10.05;102997.38;5099988;28;19954;-76
2022/03/23 12:06:45;;;;;;;;;;;;;;;36.96;10.15;102999.78;5094660;28;20719;-77
2022/03/23 12:09:28;;;;;;;;;;;;;;;37.02;8.41;103007.53;5099953;28;19928;-76
2022/03/23 12:11:54;;;;;;;;;;;;;;;36.42;8.70;102993.47;5098863;28;19923;-77
2022/03/23 12:14:20;;;;;;;;;;;;;;;36.46;8.83;102987.88;5107834;28;19934;-75
2022/03/23 12:16:45;;;;;;;;;;;;;;;36.09;10.24;102991.38;5115248;28;20112;-76
2022/03/23 12:19:11;;;;;;;;;;;;;;;36.18;9.81;102990.97;5111006;28;20708;-75
2022/03/23 12:21:52;;;;;;;;;;;;;;;35.62;9.76;102986.38;5094334;28;19923;-75
2022/03/23 12:24:25;;;;;;;;;;;;;;;35.99;10.50;102980.25;5092812;28;19920;-76
2022/03/23 12:26:52;;;;;;;;;;;;;;;36.53;9.46;102971.53;5092345;28;19935;-75
2022/03/23 12:29:26;;;;;;;;;;;;;;;36.91;9.22;102981.25;5103097;28;20385;-78
2022/03/23 12:32:02;;;;;;;;;;;;;;;36.65;8.97;102976.28;5096372;28;20294;-76
2022/03/23 12:34:27;;;;;;;;;;;;;;;36.26;10.21;102978.06;5098073;28;19923;-78
2022/03/23 12:36:56;;;;;;;;;;;;;;;36.47;8.60;102973.56;5096779;28;19952;-78
2022/03/23 12:39:26;;;;;;;;;;;;;;;35.71;9.14;102972.56;5099734;28;19928;-76
2022/03/23 12:41:52;;;;;;;;;;;;;;;35.37;9.91;102978.53;5093574;28;19967;-77
2022/03/23 12:44:19;;;;;;;;;;;;;;;35.50;9.88;102968.19;5099542;28;19963;-76
2022/03/23 12:46:45;;;;;;;;;;;;;;;35.41;9.63;102966.72;5092949;28;19963;-76
2022/03/23 12:57:53;;;;;;;;;;;;;;;35.61;9.97;102946.28;5105354;28;19930;-75
2022/03/23 13:00:29;;;;;;;;;;;;;;;35.64;9.83;102949.69;5102986;28;19919;-76
2022/03/23 13:03:06;;;;;;;;;;;;;;;35.80;9.29;102951.66;5105108;28;19915;-75
2022/03/23 13:05:35;;;;;;;;;;;;;;;34.46;9.00;102950.22;5108012;28;19924;-74
2022/03/23 13:08:00;;;;;;;;;;;;;;;33.28;10.18;102939.41;5102741;28;19923;-74
2022/03/23 13:10:26;;;;;;;;;;;;;;;32.52;10.31;102945.47;5104145;28;19916;-74